sensor_id;sensor_type;location;lat;lon;timestamp;temperature;humidity
15409;DHT22;7803;48.130;13.788;2023-05-10T00:01:57;22.30;78.50
15409;DHT22;7803;48.130;13.788;2023-05-10T00:04:59;22.40;78.60
15409;DHT22;7803;48.130;13.788;2023-05-10T00:08:03;22.30;78.60
15409;DHT22;7803;48.130;13.788;2023-05-10T00:11:05;22.40;78.60
15409;DHT22;7803;48.130;13.788;2023-05-10T00:14:07;22.40;78.60
15409;DHT22;7803;48.130;13.788;2023-05-10T00:17:09;22.40;78.70
15409;DHT22;7803;48.130;13.788;2023-05-10T00:20:11;22.30;78.60
15409;DHT22;7803;48.130;13.788;2023-05-10T00:23:15;22.30;78.60
15409;DHT22;7803;48.130;13.788;2023-05-10T00:26:17;22.30;78.60
15409;DHT22;7803;48.130;13.788;2023-05-10T00:29:19;22.30;78.60
15409;DHT22;7803;48.130;13.788;2023-05-10T00:32:21;22.30;78.60
15409;DHT22;7803;48.130;13.788;2023-05-10T00:35:23;22.40;78.60
15409;DHT22;7803;48.130;13.788;2023-05-10T00:38:26;22.40;78.60
15409;DHT22;7803;48.130;13.788;2023-05-10T00:41:28;22.40;78.60
15409;DHT22;7803;48.130;13.788;2023-05-10T00:44:32;22.40;78.60
15409;DHT22;7803;48.130;13.788;2023-05-10T00:47:34;22.30;78.50
15409;DHT22;7803;48.130;13.788;2023-05-10T00:50:36;22.30;78.40
15409;DHT22;7803;48.130;13.788;2023-05-10T00:53:40;22.30;78.50
15409;DHT22;7803;48.130;13.788;2023-05-10T00:56:43;22.30;78.50
15409;DHT22;7803;48.130;13.788;2023-05-10T00:59:49;22.30;78.60
15409;DHT22;7803;48.130;13.788;2023-05-10T01:02:53;22.30;78.50
15409;DHT22;7803;48.130;13.788;2023-05-10T01:05:55;22.30;78.60
15409;DHT22;7803;48.130;13.788;2023-05-10T01:08:58;22.30;78.50
15409;DHT22;7803;48.130;13.788;2023-05-10T01:12:01;22.30;78.50
15409;DHT22;7803;48.130;13.788;2023-05-10T01:15:04;22.30;78.40
15409;DHT22;7803;48.130;13.788;2023-05-10T01:18:09;22.30;78.50
15409;DHT22;7803;48.130;13.788;2023-05-10T01:21:17;22.30;78.50
15409;DHT22;7803;48.130;13.788;2023-05-10T01:25:06;22.30;78.40
15409;DHT22;7803;48.130;13.788;2023-05-10T01:28:23;22.30;78.40
15409;DHT22;7803;48.130;13.788;2023-05-10T01:35:01;22.30;78.40
15409;DHT22;7803;48.130;13.788;2023-05-10T01:38:07;22.30;78.40
15409;DHT22;7803;48.130;13.788;2023-05-10T01:41:16;22.30;78.40
15409;DHT22;7803;48.130;13.788;2023-05-10T01:44:24;22.30;78.40
15409;DHT22;7803;48.130;13.788;2023-05-10T01:47:34;22.30;78.40
15409;DHT22;7803;48.130;13.788;2023-05-10T01:50:43;22.30;78.40
15409;DHT22;7803;48.130;13.788;2023-05-10T01:53:46;22.30;78.40
15409;DHT22;7803;48.130;13.788;2023-05-10T01:56:55;22.30;78.30
15409;DHT22;7803;48.130;13.788;2023-05-10T01:59:59;22.30;78.30
15409;DHT22;7803;48.130;13.788;2023-05-10T02:03:06;22.30;78.30
15409;DHT22;7803;48.130;13.788;2023-05-10T02:06:11;22.30;78.30
15409;DHT22;7803;48.130;13.788;2023-05-10T02:09:15;22.30;78.30
15409;DHT22;7803;48.130;13.788;2023-05-10T02:12:18;22.30;78.30
15409;DHT22;7803;48.130;13.788;2023-05-10T02:15:22;22.30;78.30
15409;DHT22;7803;48.130;13.788;2023-05-10T02:18:26;22.30;78.40
15409;DHT22;7803;48.130;13.788;2023-05-10T02:21:30;22.30;78.30
15409;DHT22;7803;48.130;13.788;2023-05-10T02:24:33;22.30;78.40
15409;DHT22;7803;48.130;13.788;2023-05-10T02:27:36;22.30;78.30
15409;DHT22;7803;48.130;13.788;2023-05-10T02:30:39;22.30;78.30
15409;DHT22;7803;48.130;13.788;2023-05-10T02:33:42;22.30;78.30
15409;DHT22;7803;48.130;13.788;2023-05-10T02:36:47;22.20;78.20
15409;DHT22;7803;48.130;13.788;2023-05-10T02:39:50;22.30;78.30
15409;DHT22;7803;48.130;13.788;2023-05-10T02:42:55;22.30;78.30
15409;DHT22;7803;48.130;13.788;2023-05-10T02:45:59;22.20;78.20
15409;DHT22;7803;48.130;13.788;2023-05-10T02:49:01;22.20;78.20
15409;DHT22;7803;48.130;13.788;2023-05-10T02:52:05;22.20;78.30
15409;DHT22;7803;48.130;13.788;2023-05-10T02:55:11;22.20;78.30
15409;DHT22;7803;48.130;13.788;2023-05-10T02:58:14;22.20;78.20
15409;DHT22;7803;48.130;13.788;2023-05-10T03:01:16;22.20;78.30
15409;DHT22;7803;48.130;13.788;2023-05-10T03:04:18;22.30;78.30
15409;DHT22;7803;48.130;13.788;2023-05-10T03:07:21;22.30;78.30
15409;DHT22;7803;48.130;13.788;2023-05-10T03:10:27;22.20;78.20
15409;DHT22;7803;48.130;13.788;2023-05-10T03:13:34;22.20;78.20
15409;DHT22;7803;48.130;13.788;2023-05-10T03:16:42;22.20;78.20
15409;DHT22;7803;48.130;13.788;2023-05-10T03:19:52;22.20;78.20
15409;DHT22;7803;48.130;13.788;2023-05-10T03:23:02;22.20;78.20
15409;DHT22;7803;48.130;13.788;2023-05-10T03:26:07;22.30;78.30
15409;DHT22;7803;48.130;13.788;2023-05-10T03:29:09;22.20;78.10
15409;DHT22;7803;48.130;13.788;2023-05-10T03:32:11;22.20;78.20
15409;DHT22;7803;48.130;13.788;2023-05-10T03:35:14;22.20;78.20
15409;DHT22;7803;48.130;13.788;2023-05-10T03:38:17;22.30;78.30
15409;DHT22;7803;48.130;13.788;2023-05-10T03:41:19;22.30;78.30
15409;DHT22;7803;48.130;13.788;2023-05-10T03:44:21;22.20;78.30
15409;DHT22;7803;48.130;13.788;2023-05-10T03:47:23;22.30;78.30
15409;DHT22;7803;48.130;13.788;2023-05-10T03:50:25;22.20;78.30
15409;DHT22;7803;48.130;13.788;2023-05-10T03:53:29;22.20;78.30
15409;DHT22;7803;48.130;13.788;2023-05-10T03:56:31;22.20;78.30
15409;DHT22;7803;48.130;13.788;2023-05-10T03:59:33;22.20;78.30
15409;DHT22;7803;48.130;13.788;2023-05-10T04:02:35;22.20;78.30
15409;DHT22;7803;48.130;13.788;2023-05-10T04:05:37;22.30;78.30
15409;DHT22;7803;48.130;13.788;2023-05-10T04:08:40;22.30;78.30
15409;DHT22;7803;48.130;13.788;2023-05-10T04:11:42;22.20;78.30
15409;DHT22;7803;48.130;13.788;2023-05-10T04:14:44;22.30;78.40
15409;DHT22;7803;48.130;13.788;2023-05-10T04:17:46;22.20;78.30
15409;DHT22;7803;48.130;13.788;2023-05-10T04:20:48;22.20;78.30
15409;DHT22;7803;48.130;13.788;2023-05-10T04:23:51;22.20;78.30
15409;DHT22;7803;48.130;13.788;2023-05-10T04:26:54;22.30;78.30
15409;DHT22;7803;48.130;13.788;2023-05-10T04:29:56;22.30;78.40
15409;DHT22;7803;48.130;13.788;2023-05-10T04:32:58;22.20;78.30
15409;DHT22;7803;48.130;13.788;2023-05-10T04:36:01;22.20;78.30
15409;DHT22;7803;48.130;13.788;2023-05-10T04:39:04;22.20;78.30
15409;DHT22;7803;48.130;13.788;2023-05-10T04:42:06;22.20;78.30
15409;DHT22;7803;48.130;13.788;2023-05-10T04:45:09;22.20;78.30
15409;DHT22;7803;48.130;13.788;2023-05-10T04:48:11;22.30;78.40
15409;DHT22;7803;48.130;13.788;2023-05-10T04:51:13;22.20;78.30
15409;DHT22;7803;48.130;13.788;2023-05-10T04:54:16;22.20;78.30
15409;DHT22;7803;48.130;13.788;2023-05-10T04:57:18;22.30;78.30
15409;DHT22;7803;48.130;13.788;2023-05-10T05:00:20;22.20;78.20
15409;DHT22;7803;48.130;13.788;2023-05-10T05:03:22;22.20;78.10
15409;DHT22;7803;48.130;13.788;2023-05-10T05:06:24;22.30;78.30
15409;DHT22;7803;48.130;13.788;2023-05-10T05:09:29;22.20;78.50
15409;DHT22;7803;48.130;13.788;2023-05-10T05:12:32;22.20;78.50
15409;DHT22;7803;48.130;13.788;2023-05-10T05:15:34;22.20;78.40
15409;DHT22;7803;48.130;13.788;2023-05-10T05:18:36;22.30;78.40
15409;DHT22;7803;48.130;13.788;2023-05-10T05:21:38;22.20;78.40
15409;DHT22;7803;48.130;13.788;2023-05-10T05:24:41;22.20;78.40
15409;DHT22;7803;48.130;13.788;2023-05-10T05:27:43;22.30;78.50
15409;DHT22;7803;48.130;13.788;2023-05-10T05:30:45;22.20;78.40
15409;DHT22;7803;48.130;13.788;2023-05-10T05:33:47;22.20;78.40
15409;DHT22;7803;48.130;13.788;2023-05-10T05:36:49;22.20;78.40
15409;DHT22;7803;48.130;13.788;2023-05-10T05:39:52;22.20;78.40
15409;DHT22;7803;48.130;13.788;2023-05-10T05:42:55;22.30;78.40
15409;DHT22;7803;48.130;13.788;2023-05-10T05:45:57;22.30;78.40
15409;DHT22;7803;48.130;13.788;2023-05-10T05:48:59;22.20;78.40
15409;DHT22;7803;48.130;13.788;2023-05-10T05:52:02;22.20;78.30
15409;DHT22;7803;48.130;13.788;2023-05-10T05:55:06;22.20;78.40
15409;DHT22;7803;48.130;13.788;2023-05-10T05:58:08;22.30;78.50
15409;DHT22;7803;48.130;13.788;2023-05-10T06:01:10;22.20;78.40
15409;DHT22;7803;48.130;13.788;2023-05-10T06:04:12;22.30;78.40
15409;DHT22;7803;48.130;13.788;2023-05-10T06:07:14;22.30;78.40
15409;DHT22;7803;48.130;13.788;2023-05-10T06:10:17;22.20;78.40
15409;DHT22;7803;48.130;13.788;2023-05-10T06:13:19;22.30;78.40
15409;DHT22;7803;48.130;13.788;2023-05-10T06:16:21;22.20;78.40
15409;DHT22;7803;48.130;13.788;2023-05-10T06:19:24;22.30;78.40
15409;DHT22;7803;48.130;13.788;2023-05-10T06:22:26;22.20;78.40
15409;DHT22;7803;48.130;13.788;2023-05-10T06:25:30;22.30;78.50
15409;DHT22;7803;48.130;13.788;2023-05-10T06:28:32;22.20;78.40
15409;DHT22;7803;48.130;13.788;2023-05-10T06:31:34;22.30;78.50
15409;DHT22;7803;48.130;13.788;2023-05-10T06:34:36;22.30;78.50
15409;DHT22;7803;48.130;13.788;2023-05-10T06:37:38;22.20;78.40
15409;DHT22;7803;48.130;13.788;2023-05-10T06:40:42;22.30;78.50
15409;DHT22;7803;48.130;13.788;2023-05-10T06:43:44;22.20;78.40
15409;DHT22;7803;48.130;13.788;2023-05-10T06:46:46;22.20;78.40
15409;DHT22;7803;48.130;13.788;2023-05-10T06:49:48;22.30;78.50
15409;DHT22;7803;48.130;13.788;2023-05-10T06:52:50;22.20;78.40
15409;DHT22;7803;48.130;13.788;2023-05-10T06:55:53;22.30;78.60
15409;DHT22;7803;48.130;13.788;2023-05-10T06:58:55;22.30;78.60
15409;DHT22;7803;48.130;13.788;2023-05-10T07:01:57;22.20;78.50
15409;DHT22;7803;48.130;13.788;2023-05-10T07:04:59;22.30;78.60
15409;DHT22;7803;48.130;13.788;2023-05-10T07:08:01;22.30;78.50
15409;DHT22;7803;48.130;13.788;2023-05-10T07:11:06;22.30;78.60
15409;DHT22;7803;48.130;13.788;2023-05-10T07:14:08;22.30;78.50
15409;DHT22;7803;48.130;13.788;2023-05-10T07:17:10;22.30;78.50
15409;DHT22;7803;48.130;13.788;2023-05-10T07:20:12;22.30;78.50
15409;DHT22;7803;48.130;13.788;2023-05-10T07:23:15;22.30;78.60
15409;DHT22;7803;48.130;13.788;2023-05-10T07:26:19;22.30;78.60
15409;DHT22;7803;48.130;13.788;2023-05-10T07:29:22;22.30;78.60
15409;DHT22;7803;48.130;13.788;2023-05-10T07:32:24;22.30;78.60
15409;DHT22;7803;48.130;13.788;2023-05-10T07:35:26;22.30;78.60
15409;DHT22;7803;48.130;13.788;2023-05-10T07:38:28;22.30;78.60
15409;DHT22;7803;48.130;13.788;2023-05-10T07:41:31;22.30;78.60
15409;DHT22;7803;48.130;13.788;2023-05-10T07:44:33;22.30;78.60
15409;DHT22;7803;48.130;13.788;2023-05-10T07:47:35;22.30;78.60
15409;DHT22;7803;48.130;13.788;2023-05-10T07:50:37;22.30;78.60
15409;DHT22;7803;48.130;13.788;2023-05-10T07:53:39;22.30;78.60
15409;DHT22;7803;48.130;13.788;2023-05-10T07:56:43;22.30;78.70
15409;DHT22;7803;48.130;13.788;2023-05-10T07:59:47;22.30;78.60
15409;DHT22;7803;48.130;13.788;2023-05-10T08:02:49;22.30;78.70
15409;DHT22;7803;48.130;13.788;2023-05-10T08:05:51;22.30;78.70
15409;DHT22;7803;48.130;13.788;2023-05-10T08:08:53;22.30;78.70
15409;DHT22;7803;48.130;13.788;2023-05-10T08:11:57;22.30;78.70
15409;DHT22;7803;48.130;13.788;2023-05-10T08:14:59;22.30;78.60
15409;DHT22;7803;48.130;13.788;2023-05-10T08:18:02;22.30;78.60
15409;DHT22;7803;48.130;13.788;2023-05-10T08:21:05;22.30;78.60
15409;DHT22;7803;48.130;13.788;2023-05-10T08:24:07;22.30;78.60
15409;DHT22;7803;48.130;13.788;2023-05-10T08:27:10;22.30;78.70
15409;DHT22;7803;48.130;13.788;2023-05-10T08:30:12;22.30;78.70
15409;DHT22;7803;48.130;13.788;2023-05-10T08:33:14;22.30;78.70
15409;DHT22;7803;48.130;13.788;2023-05-10T08:36:16;22.40;78.80
15409;DHT22;7803;48.130;13.788;2023-05-10T08:39:21;22.30;78.80
15409;DHT22;7803;48.130;13.788;2023-05-10T08:42:28;22.40;78.80
15409;DHT22;7803;48.130;13.788;2023-05-10T08:45:33;22.30;78.80
15409;DHT22;7803;48.130;13.788;2023-05-10T08:48:35;22.30;78.80
15409;DHT22;7803;48.130;13.788;2023-05-10T08:51:40;22.40;78.80
15409;DHT22;7803;48.130;13.788;2023-05-10T08:54:45;22.30;78.80
15409;DHT22;7803;48.130;13.788;2023-05-10T08:57:49;22.30;78.80
15409;DHT22;7803;48.130;13.788;2023-05-10T09:00:51;22.30;78.80
15409;DHT22;7803;48.130;13.788;2023-05-10T09:03:53;22.30;78.80
15409;DHT22;7803;48.130;13.788;2023-05-10T09:06:55;22.30;78.90
15409;DHT22;7803;48.130;13.788;2023-05-10T09:09:58;22.30;79.80
15409;DHT22;7803;48.130;13.788;2023-05-10T09:13:02;22.30;78.80
15409;DHT22;7803;48.130;13.788;2023-05-10T09:16:05;22.40;79.00
15409;DHT22;7803;48.130;13.788;2023-05-10T09:19:08;22.30;78.90
15409;DHT22;7803;48.130;13.788;2023-05-10T09:22:10;22.30;78.90
15409;DHT22;7803;48.130;13.788;2023-05-10T09:25:13;22.30;78.90
15409;DHT22;7803;48.130;13.788;2023-05-10T09:28:16;22.30;78.90
15409;DHT22;7803;48.130;13.788;2023-05-10T09:31:18;22.30;78.90
15409;DHT22;7803;48.130;13.788;2023-05-10T09:34:28;22.30;78.90
15409;DHT22;7803;48.130;13.788;2023-05-10T09:37:30;22.30;78.90
15409;DHT22;7803;48.130;13.788;2023-05-10T09:40:32;22.30;78.90
15409;DHT22;7803;48.130;13.788;2023-05-10T09:43:40;22.30;78.90
15409;DHT22;7803;48.130;13.788;2023-05-10T09:46:42;22.40;78.90
15409;DHT22;7803;48.130;13.788;2023-05-10T09:49:43;22.30;78.90
15409;DHT22;7803;48.130;13.788;2023-05-10T09:52:47;22.30;78.90
15409;DHT22;7803;48.130;13.788;2023-05-10T09:55:49;22.30;79.00
15409;DHT22;7803;48.130;13.788;2023-05-10T09:59:03;22.30;79.00
15409;DHT22;7803;48.130;13.788;2023-05-10T10:02:06;22.30;79.90
15409;DHT22;7803;48.130;13.788;2023-05-10T10:05:08;22.30;79.00
15409;DHT22;7803;48.130;13.788;2023-05-10T10:08:11;22.40;79.10
15409;DHT22;7803;48.130;13.788;2023-05-10T10:11:13;22.40;79.00
15409;DHT22;7803;48.130;13.788;2023-05-10T10:14:18;22.40;79.10
15409;DHT22;7803;48.130;13.788;2023-05-10T10:17:20;22.30;79.00
15409;DHT22;7803;48.130;13.788;2023-05-10T10:20:23;22.30;79.00
15409;DHT22;7803;48.130;13.788;2023-05-10T10:23:26;22.40;79.10
15409;DHT22;7803;48.130;13.788;2023-05-10T10:26:29;22.30;79.10
15409;DHT22;7803;48.130;13.788;2023-05-10T10:29:39;22.30;79.10
15409;DHT22;7803;48.130;13.788;2023-05-10T10:33:01;22.40;79.10
15409;DHT22;7803;48.130;13.788;2023-05-10T10:36:04;22.30;79.10
15409;DHT22;7803;48.130;13.788;2023-05-10T10:39:09;22.30;79.10
15409;DHT22;7803;48.130;13.788;2023-05-10T10:42:11;22.40;79.10
15409;DHT22;7803;48.130;13.788;2023-05-10T10:45:15;22.40;79.10
15409;DHT22;7803;48.130;13.788;2023-05-10T10:48:21;22.30;79.00
15409;DHT22;7803;48.130;13.788;2023-05-10T10:51:23;22.40;79.10
15409;DHT22;7803;48.130;13.788;2023-05-10T10:54:27;22.30;79.10
15409;DHT22;7803;48.130;13.788;2023-05-10T10:57:32;22.40;79.10
15409;DHT22;7803;48.130;13.788;2023-05-10T11:00:37;22.30;79.10
15409;DHT22;7803;48.130;13.788;2023-05-10T11:03:54;22.30;79.10
15409;DHT22;7803;48.130;13.788;2023-05-10T11:07:17;22.30;79.10
15409;DHT22;7803;48.130;13.788;2023-05-10T11:10:19;22.30;79.20
15409;DHT22;7803;48.130;13.788;2023-05-10T11:13:29;22.30;79.10
15409;DHT22;7803;48.130;13.788;2023-05-10T11:16:41;22.40;79.20
15409;DHT22;7803;48.130;13.788;2023-05-10T11:20:08;22.40;79.20
15409;DHT22;7803;48.130;13.788;2023-05-10T11:23:14;22.40;79.20
15409;DHT22;7803;48.130;13.788;2023-05-10T11:26:18;22.30;79.10
15409;DHT22;7803;48.130;13.788;2023-05-10T11:29:23;22.30;79.10
15409;DHT22;7803;48.130;13.788;2023-05-10T11:32:28;22.30;79.10
15409;DHT22;7803;48.130;13.788;2023-05-10T11:35:31;22.40;79.20
15409;DHT22;7803;48.130;13.788;2023-05-10T11:38:38;22.30;79.30
15409;DHT22;7803;48.130;13.788;2023-05-10T11:41:40;22.30;79.20
15409;DHT22;7803;48.130;13.788;2023-05-10T11:44:44;22.40;79.30
15409;DHT22;7803;48.130;13.788;2023-05-10T11:47:49;22.30;79.20
15409;DHT22;7803;48.130;13.788;2023-05-10T11:50:51;22.40;79.30
15409;DHT22;7803;48.130;13.788;2023-05-10T11:53:57;22.30;79.10
15409;DHT22;7803;48.130;13.788;2023-05-10T11:57:00;22.40;79.20
15409;DHT22;7803;48.130;13.788;2023-05-10T12:00:02;22.30;79.10
15409;DHT22;7803;48.130;13.788;2023-05-10T12:03:06;22.40;79.30
15409;DHT22;7803;48.130;13.788;2023-05-10T12:06:08;22.30;79.20
15409;DHT22;7803;48.130;13.788;2023-05-10T12:09:10;22.40;79.30
15409;DHT22;7803;48.130;13.788;2023-05-10T12:12:16;22.30;79.20
15409;DHT22;7803;48.130;13.788;2023-05-10T12:15:19;22.30;79.30
15409;DHT22;7803;48.130;13.788;2023-05-10T12:18:24;22.30;79.30
15409;DHT22;7803;48.130;13.788;2023-05-10T12:21:28;22.40;79.30
15409;DHT22;7803;48.130;13.788;2023-05-10T12:24:30;22.30;79.30
15409;DHT22;7803;48.130;13.788;2023-05-10T12:27:35;22.30;79.30
15409;DHT22;7803;48.130;13.788;2023-05-10T12:30:37;22.30;79.30
15409;DHT22;7803;48.130;13.788;2023-05-10T12:33:41;22.40;79.40
15409;DHT22;7803;48.130;13.788;2023-05-10T12:36:43;22.30;79.30
15409;DHT22;7803;48.130;13.788;2023-05-10T12:39:46;22.30;79.30
15409;DHT22;7803;48.130;13.788;2023-05-10T12:42:47;22.40;79.30
15409;DHT22;7803;48.130;13.788;2023-05-10T12:45:50;22.30;79.30
15409;DHT22;7803;48.130;13.788;2023-05-10T12:48:53;22.40;79.40
15409;DHT22;7803;48.130;13.788;2023-05-10T12:51:56;22.30;79.30
15409;DHT22;7803;48.130;13.788;2023-05-10T12:54:58;22.30;79.40
15409;DHT22;7803;48.130;13.788;2023-05-10T12:58:00;22.30;79.40
15409;DHT22;7803;48.130;13.788;2023-05-10T13:01:03;22.40;79.40
15409;DHT22;7803;48.130;13.788;2023-05-10T13:04:07;22.30;79.30
15409;DHT22;7803;48.130;13.788;2023-05-10T13:07:10;22.30;79.30
15409;DHT22;7803;48.130;13.788;2023-05-10T13:10:12;22.30;79.30
15409;DHT22;7803;48.130;13.788;2023-05-10T13:13:15;22.30;79.30
15409;DHT22;7803;48.130;13.788;2023-05-10T13:16:18;22.40;79.40
15409;DHT22;7803;48.130;13.788;2023-05-10T13:19:21;22.30;79.40
15409;DHT22;7803;48.130;13.788;2023-05-10T13:22:23;22.40;79.40
15409;DHT22;7803;48.130;13.788;2023-05-10T13:25:25;22.40;79.40
15409;DHT22;7803;48.130;13.788;2023-05-10T13:28:27;22.40;79.40
15409;DHT22;7803;48.130;13.788;2023-05-10T13:31:30;22.30;79.40
15409;DHT22;7803;48.130;13.788;2023-05-10T13:34:34;22.30;79.40
15409;DHT22;7803;48.130;13.788;2023-05-10T13:37:36;22.30;79.40
15409;DHT22;7803;48.130;13.788;2023-05-10T13:40:38;22.30;79.40
15409;DHT22;7803;48.130;13.788;2023-05-10T13:43:40;22.40;79.40
15409;DHT22;7803;48.130;13.788;2023-05-10T13:46:42;22.40;79.40
15409;DHT22;7803;48.130;13.788;2023-05-10T13:49:45;22.30;79.40
15409;DHT22;7803;48.130;13.788;2023-05-10T13:52:47;22.30;79.40
15409;DHT22;7803;48.130;13.788;2023-05-10T13:55:49;22.40;79.40
15409;DHT22;7803;48.130;13.788;2023-05-10T13:58:51;22.40;79.40
15409;DHT22;7803;48.130;13.788;2023-05-10T14:01:53;22.40;79.60
15409;DHT22;7803;48.130;13.788;2023-05-10T14:04:57;22.40;79.50
15409;DHT22;7803;48.130;13.788;2023-05-10T14:07:59;22.40;79.50
15409;DHT22;7803;48.130;13.788;2023-05-10T14:11:01;22.30;79.40
15409;DHT22;7803;48.130;13.788;2023-05-10T14:14:03;22.30;79.40
15409;DHT22;7803;48.130;13.788;2023-05-10T14:17:05;22.30;79.40
15409;DHT22;7803;48.130;13.788;2023-05-10T14:20:10;22.30;79.40
15409;DHT22;7803;48.130;13.788;2023-05-10T14:23:12;22.30;79.40
15409;DHT22;7803;48.130;13.788;2023-05-10T14:26:14;22.40;79.50
15409;DHT22;7803;48.130;13.788;2023-05-10T14:29:16;22.30;79.40
15409;DHT22;7803;48.130;13.788;2023-05-10T14:32:18;22.40;80.40
15409;DHT22;7803;48.130;13.788;2023-05-10T14:35:22;22.30;79.40
15409;DHT22;7803;48.130;13.788;2023-05-10T14:38:24;22.40;80.50
15409;DHT22;7803;48.130;13.788;2023-05-10T14:41:27;22.30;79.50
15409;DHT22;7803;48.130;13.788;2023-05-10T14:44:30;22.30;79.60
15409;DHT22;7803;48.130;13.788;2023-05-10T14:47:32;22.30;79.50
15409;DHT22;7803;48.130;13.788;2023-05-10T14:50:36;22.30;79.50
15409;DHT22;7803;48.130;13.788;2023-05-10T14:53:38;22.30;79.50
15409;DHT22;7803;48.130;13.788;2023-05-10T14:56:40;22.30;79.40
15409;DHT22;7803;48.130;13.788;2023-05-10T14:59:42;22.30;79.40
15409;DHT22;7803;48.130;13.788;2023-05-10T15:02:44;22.30;79.40
15409;DHT22;7803;48.130;13.788;2023-05-10T15:05:47;22.30;79.40
15409;DHT22;7803;48.130;13.788;2023-05-10T15:08:49;22.40;79.60
15409;DHT22;7803;48.130;13.788;2023-05-10T15:11:51;22.40;79.60
15409;DHT22;7803;48.130;13.788;2023-05-10T15:14:53;22.30;79.50
15409;DHT22;7803;48.130;13.788;2023-05-10T15:17:55;22.40;79.60
15409;DHT22;7803;48.130;13.788;2023-05-10T15:20:58;22.30;79.60
15409;DHT22;7803;48.130;13.788;2023-05-10T15:24:00;22.30;79.60
15409;DHT22;7803;48.130;13.788;2023-05-10T15:27:02;22.30;79.60
15409;DHT22;7803;48.130;13.788;2023-05-10T15:30:05;22.30;79.60
15409;DHT22;7803;48.130;13.788;2023-05-10T15:33:07;22.30;79.60
15409;DHT22;7803;48.130;13.788;2023-05-10T15:36:11;22.30;79.60
15409;DHT22;7803;48.130;13.788;2023-05-10T15:39:13;22.30;79.60
15409;DHT22;7803;48.130;13.788;2023-05-10T15:42:16;22.30;79.50
15409;DHT22;7803;48.130;13.788;2023-05-10T15:45:18;22.30;79.50
15409;DHT22;7803;48.130;13.788;2023-05-10T15:48:20;22.40;79.60
15409;DHT22;7803;48.130;13.788;2023-05-10T15:51:24;22.30;79.60
15409;DHT22;7803;48.130;13.788;2023-05-10T15:54:26;22.40;80.60
15409;DHT22;7803;48.130;13.788;2023-05-10T15:57:28;22.40;79.70
15409;DHT22;7803;48.130;13.788;2023-05-10T16:00:31;22.30;79.60
15409;DHT22;7803;48.130;13.788;2023-05-10T16:03:33;22.30;79.60
15409;DHT22;7803;48.130;13.788;2023-05-10T16:06:37;22.40;79.60
15409;DHT22;7803;48.130;13.788;2023-05-10T16:09:39;22.40;79.60
15409;DHT22;7803;48.130;13.788;2023-05-10T16:12:41;22.40;79.60
15409;DHT22;7803;48.130;13.788;2023-05-10T16:15:43;22.30;79.60
15409;DHT22;7803;48.130;13.788;2023-05-10T16:18:45;22.40;79.60
15409;DHT22;7803;48.130;13.788;2023-05-10T16:21:49;22.30;79.60
15409;DHT22;7803;48.130;13.788;2023-05-10T16:24:51;22.30;79.60
15409;DHT22;7803;48.130;13.788;2023-05-10T16:27:53;22.40;79.70
15409;DHT22;7803;48.130;13.788;2023-05-10T16:30:55;22.30;79.70
15409;DHT22;7803;48.130;13.788;2023-05-10T16:33:57;22.40;80.10
15409;DHT22;7803;48.130;13.788;2023-05-10T16:37:00;22.30;79.70
15409;DHT22;7803;48.130;13.788;2023-05-10T16:40:02;22.40;79.80
15409;DHT22;7803;48.130;13.788;2023-05-10T16:43:04;22.30;79.70
15409;DHT22;7803;48.130;13.788;2023-05-10T16:46:10;22.30;79.70
15409;DHT22;7803;48.130;13.788;2023-05-10T16:49:12;22.40;79.70
15409;DHT22;7803;48.130;13.788;2023-05-10T16:52:16;22.40;79.70
15409;DHT22;7803;48.130;13.788;2023-05-10T16:55:18;22.30;79.60
15409;DHT22;7803;48.130;13.788;2023-05-10T16:58:20;22.30;79.60
15409;DHT22;7803;48.130;13.788;2023-05-10T17:01:22;22.40;79.70
15409;DHT22;7803;48.130;13.788;2023-05-10T17:04:24;22.40;79.80
15409;DHT22;7803;48.130;13.788;2023-05-10T17:07:27;22.40;79.80
15409;DHT22;7803;48.130;13.788;2023-05-10T17:10:29;22.40;79.80
15409;DHT22;7803;48.130;13.788;2023-05-10T17:13:31;22.40;79.80
15409;DHT22;7803;48.130;13.788;2023-05-10T17:16:33;22.40;79.80
15409;DHT22;7803;48.130;13.788;2023-05-10T17:19:35;22.30;79.70
15409;DHT22;7803;48.130;13.788;2023-05-10T17:22:38;22.40;79.80
15409;DHT22;7803;48.130;13.788;2023-05-10T17:25:40;22.40;79.70
15409;DHT22;7803;48.130;13.788;2023-05-10T17:28:42;22.30;79.70
15409;DHT22;7803;48.130;13.788;2023-05-10T17:31:44;22.40;79.80
15409;DHT22;7803;48.130;13.788;2023-05-10T17:34:47;22.30;79.70
15409;DHT22;7803;48.130;13.788;2023-05-10T17:37:50;22.30;79.70
15409;DHT22;7803;48.130;13.788;2023-05-10T17:40:52;22.40;79.90
15409;DHT22;7803;48.130;13.788;2023-05-10T17:43:54;22.40;79.80
15409;DHT22;7803;48.130;13.788;2023-05-10T17:46:56;22.30;79.80
15409;DHT22;7803;48.130;13.788;2023-05-10T17:49:58;22.30;79.80
15409;DHT22;7803;48.130;13.788;2023-05-10T17:53:02;22.40;79.80
15409;DHT22;7803;48.130;13.788;2023-05-10T17:56:04;22.30;79.80
15409;DHT22;7803;48.130;13.788;2023-05-10T17:59:06;22.30;79.80
15409;DHT22;7803;48.130;13.788;2023-05-10T18:02:08;22.30;79.80
15409;DHT22;7803;48.130;13.788;2023-05-10T18:05:10;22.30;79.80
15409;DHT22;7803;48.130;13.788;2023-05-10T18:08:14;22.30;79.70
15409;DHT22;7803;48.130;13.788;2023-05-10T18:11:21;22.30;79.80
15409;DHT22;7803;48.130;13.788;2023-05-10T18:14:24;22.30;79.80
15409;DHT22;7803;48.130;13.788;2023-05-10T18:17:28;22.30;79.80
15409;DHT22;7803;48.130;13.788;2023-05-10T18:20:30;22.30;79.80
15409;DHT22;7803;48.130;13.788;2023-05-10T18:23:33;22.40;79.90
15409;DHT22;7803;48.130;13.788;2023-05-10T18:26:35;22.30;79.80
15409;DHT22;7803;48.130;13.788;2023-05-10T18:29:37;22.30;79.80
15409;DHT22;7803;48.130;13.788;2023-05-10T18:32:40;22.30;79.80
15409;DHT22;7803;48.130;13.788;2023-05-10T18:35:42;22.40;79.80
15409;DHT22;7803;48.130;13.788;2023-05-10T18:38:45;22.30;79.80
15409;DHT22;7803;48.130;13.788;2023-05-10T18:41:49;22.40;79.80
15409;DHT22;7803;48.130;13.788;2023-05-10T18:44:50;22.40;79.80
15409;DHT22;7803;48.130;13.788;2023-05-10T18:47:53;22.30;79.80
15409;DHT22;7803;48.130;13.788;2023-05-10T18:50:55;22.30;79.80
15409;DHT22;7803;48.130;13.788;2023-05-10T18:53:58;22.30;79.90
15409;DHT22;7803;48.130;13.788;2023-05-10T18:57:00;22.40;80.00
15409;DHT22;7803;48.130;13.788;2023-05-10T19:00:02;22.40;79.90
15409;DHT22;7803;48.130;13.788;2023-05-10T19:03:04;22.40;79.90
15409;DHT22;7803;48.130;13.788;2023-05-10T19:06:06;22.30;79.80
15409;DHT22;7803;48.130;13.788;2023-05-10T19:09:09;22.30;79.80
15409;DHT22;7803;48.130;13.788;2023-05-10T19:12:11;22.30;79.80
15409;DHT22;7803;48.130;13.788;2023-05-10T19:15:13;22.30;79.80
15409;DHT22;7803;48.130;13.788;2023-05-10T19:18:15;22.30;79.80
15409;DHT22;7803;48.130;13.788;2023-05-10T19:21:17;22.30;79.80